Explorer Of The Seas — C6SE4 — position and weather

sailwx.info

Track history (hours):
 
Tides and Currents Weather Stations Pressure Air Temp Water Temp Dewpoint Dewpoint Depression Visibility Wind Speed Wind Dir Waves Ship Positions

Explorer Of The Seas

Operator: Royal Caribbean Cruises Ltd

Last reported at 2014-Aug-01 10:30 UTC. Time now 2014-Aug-01 11:49 UTC.
Position N 37°33' W 070°22'.

Length 311 m; draft 9.2 m.

Type: Passenger vessel. MMSI: 311316000.

Date/timePositionNaut miles runAvg speedWind from/ knotsBaromVisibWave heightAir tempDewpointWater temp
2014-Aug-01 10:30N 37°33' W 070°22'2018.7
2014-Aug-01 09:27N 37°48' W 070°39'1719.0
2014-Aug-01 08:32N 38°00' W 070°54'1919.2
2014-Aug-01 07:33N 38°14' W 071°10'1918.8
2014-Aug-01 06:33N 38°27' W 071°27'1919.4
2014-Aug-01 05:33N 38°42' W 071°44'2020.2
2014-Aug-01 04:33N 38°57' W 072°01'2019.6
2014-Aug-01 03:33N 39°11' W 072°19'1918.5
2014-Aug-01 02:33N 39°24' W 072°35'1818.0
2014-Aug-01 01:33N 39°38' W 072°51'1817.9
2014-Aug-01 00:33N 39°50' W 073°07'1817.8
2014-Jul-31 23:33N 40°03' W 073°23'1717.3
2014-Jul-31 22:33N 40°16' W 073°38'1515.2
2014-Jul-31 21:33N 40°28' W 073°51'1514.8
2014-Jul-31 20:34N 40°39' W 074°03'1 0.8
2014-Jul-31 19:32N 40°40' W 074°04'0 0.0
2014-Jul-31 18:32N 40°40' W 074°04'0 0.0
2014-Jul-31 17:32N 40°40' W 074°04'0 0.0
2014-Jul-31 16:32N 40°40' W 074°04'0 0.0
2014-Jul-31 15:32N 40°40' W 074°04'0 0.0
2014-Jul-31 14:32N 40°40' W 074°04'0 0.0
2014-Jul-31 13:32N 40°40' W 074°04'0 0.0
2014-Jul-31 12:32N 40°40' W 074°04'0 0.2
2014-Jul-31 11:33N 40°40' W 074°04'9 9.5
2014-Jul-31 10:33N 40°31' W 073°59'1616.0
2014-Jul-31 09:33N 40°23' W 073°41'1717.1
2014-Jul-31 08:33N 40°13' W 073°23'1717.4
2014-Jul-31 07:33N 40°02' W 073°05'1919.3
2014-Jul-31 06:33N 39°49' W 072°47'2019.6
2014-Jul-31 05:33N 39°34' W 072°31'2119.7
2014-Jul-31 04:28N 39°19' W 072°11'  
2014-Jul-27 14:33N 36°36' W 069°14'1818.1
2014-Jul-27 13:33N 36°49' W 069°29'1818.5
2014-Jul-27 12:33N 37°02' W 069°45'1918.0
2014-Jul-27 11:32N 37°16' W 070°01'2418.4
2014-Jul-27 10:13N 37°33' W 070°22'1419.1
2014-Jul-27 09:31N 37°43' W 070°34'1818.6
2014-Jul-27 08:33N 37°56' W 070°49'1918.8
2014-Jul-27 07:33N 38°10' W 071°05'1918.8
2014-Jul-27 06:33N 38°24' W 071°22'1918.7
2014-Jul-27 05:33N 38°37' W 071°38'1919.0
2014-Jul-27 04:34N 38°51' W 071°55'1918.9
2014-Jul-27 03:33N 39°05' W 072°12'1918.7
2014-Jul-27 02:33N 39°19' W 072°28'1818.4
2014-Jul-27 01:33N 39°32' W 072°44'1818.3
2014-Jul-27 00:33N 39°45' W 073°01'1818.3
2014-Jul-26 23:33N 39°59' W 073°17'1818.0
2014-Jul-26 22:34N 40°12' W 073°33'1717.2
2014-Jul-26 21:34N 40°25' W 073°47'1414.2
2014-Jul-26 20:34N 40°34' W 074°02'6 6.1
2014-Jul-26 19:33N 40°40' W 074°04'0 0.0
2014-Jul-26 18:33N 40°40' W 074°04'0 0.0
2014-Jul-26 17:33N 40°40' W 074°04'0 0.0
2014-Jul-26 16:33N 40°40' W 074°04'0 0.0
2014-Jul-26 15:33N 40°40' W 074°04'0 0.0
2014-Jul-26 14:33N 40°40' W 074°04'0 0.0
2014-Jul-26 13:33N 40°40' W 074°04'0 0.0
2014-Jul-26 12:33N 40°40' W 074°04'0 0.0
2014-Jul-26 11:30N 40°40' W 074°04'2 2.5
2014-Jul-26 10:33N 40°38' W 074°03'1515.5
2014-Jul-26 09:33N 40°27' W 073°49'1918.8
2014-Jul-26 08:33N 40°08' W 073°44'2120.8
2014-Jul-26 07:33N 39°48' W 073°41'2120.9
2014-Jul-26 06:33N 39°27' W 073°40'2120.6
2014-Jul-26 05:33N 39°06' W 073°39'2020.2
2014-Jul-26 04:33N 38°46' W 073°36'2020.5
2014-Jul-26 03:33N 38°26' W 073°37'  
Track history (hours):
 
Tides and Currents Weather Stations Pressure Air Temp Water Temp Dewpoint Dewpoint Depression Visibility Wind Speed Wind Dir Waves Ship Positions

Explorer Of The Seas

Operator: Royal Caribbean Cruises Ltd

Last reported at 2014-Aug-01 10:30 UTC. Time now 2014-Aug-01 11:49 UTC.
Position N 37°33' W 070°22'.

Length 311 m; draft 9.2 m.

Type: Passenger vessel. MMSI: 311316000.

Date/timePositionNaut miles runAvg speedWind from/ knotsBaromVisibWave heightAir tempDewpointWater temp
2014-Aug-01 10:30N 37°33' W 070°22'2018.7
2014-Aug-01 09:27N 37°48' W 070°39'1719.0
2014-Aug-01 08:32N 38°00' W 070°54'1919.2
2014-Aug-01 07:33N 38°14' W 071°10'1918.8
2014-Aug-01 06:33N 38°27' W 071°27'1919.4
2014-Aug-01 05:33N 38°42' W 071°44'2020.2
2014-Aug-01 04:33N 38°57' W 072°01'2019.6
2014-Aug-01 03:33N 39°11' W 072°19'1918.5
2014-Aug-01 02:33N 39°24' W 072°35'1818.0
2014-Aug-01 01:33N 39°38' W 072°51'1817.9
2014-Aug-01 00:33N 39°50' W 073°07'1817.8
2014-Jul-31 23:33N 40°03' W 073°23'1717.3
2014-Jul-31 22:33N 40°16' W 073°38'1515.2
2014-Jul-31 21:33N 40°28' W 073°51'1514.8
2014-Jul-31 20:34N 40°39' W 074°03'1 0.8
2014-Jul-31 19:32N 40°40' W 074°04'0 0.0
2014-Jul-31 18:32N 40°40' W 074°04'0 0.0
2014-Jul-31 17:32N 40°40' W 074°04'0 0.0
2014-Jul-31 16:32N 40°40' W 074°04'0 0.0
2014-Jul-31 15:32N 40°40' W 074°04'0 0.0
2014-Jul-31 14:32N 40°40' W 074°04'0 0.0
2014-Jul-31 13:32N 40°40' W 074°04'0 0.0
2014-Jul-31 12:32N 40°40' W 074°04'0 0.2
2014-Jul-31 11:33N 40°40' W 074°04'9 9.5
2014-Jul-31 10:33N 40°31' W 073°59'1616.0
2014-Jul-31 09:33N 40°23' W 073°41'1717.1
2014-Jul-31 08:33N 40°13' W 073°23'1717.4
2014-Jul-31 07:33N 40°02' W 073°05'1919.3
2014-Jul-31 06:33N 39°49' W 072°47'2019.6
2014-Jul-31 05:33N 39°34' W 072°31'2119.7
2014-Jul-31 04:28N 39°19' W 072°11'  
2014-Jul-27 14:33N 36°36' W 069°14'1818.1
2014-Jul-27 13:33N 36°49' W 069°29'1818.5
2014-Jul-27 12:33N 37°02' W 069°45'1918.0
2014-Jul-27 11:32N 37°16' W 070°01'2418.4
2014-Jul-27 10:13N 37°33' W 070°22'1419.1
2014-Jul-27 09:31N 37°43' W 070°34'1818.6
2014-Jul-27 08:33N 37°56' W 070°49'1918.8
2014-Jul-27 07:33N 38°10' W 071°05'1918.8
2014-Jul-27 06:33N 38°24' W 071°22'1918.7
2014-Jul-27 05:33N 38°37' W 071°38'1919.0
2014-Jul-27 04:34N 38°51' W 071°55'1918.9
2014-Jul-27 03:33N 39°05' W 072°12'1918.7
2014-Jul-27 02:33N 39°19' W 072°28'1818.4
2014-Jul-27 01:33N 39°32' W 072°44'1818.3
2014-Jul-27 00:33N 39°45' W 073°01'1818.3
2014-Jul-26 23:33N 39°59' W 073°17'1818.0
2014-Jul-26 22:34N 40°12' W 073°33'1717.2
2014-Jul-26 21:34N 40°25' W 073°47'1414.2
2014-Jul-26 20:34N 40°34' W 074°02'6 6.1
2014-Jul-26 19:33N 40°40' W 074°04'0 0.0
2014-Jul-26 18:33N 40°40' W 074°04'0 0.0
2014-Jul-26 17:33N 40°40' W 074°04'0 0.0
2014-Jul-26 16:33N 40°40' W 074°04'0 0.0
2014-Jul-26 15:33N 40°40' W 074°04'0 0.0
2014-Jul-26 14:33N 40°40' W 074°04'0 0.0
2014-Jul-26 13:33N 40°40' W 074°04'0 0.0
2014-Jul-26 12:33N 40°40' W 074°04'0 0.0
2014-Jul-26 11:30N 40°40' W 074°04'2 2.5
2014-Jul-26 10:33N 40°38' W 074°03'1515.5
2014-Jul-26 09:33N 40°27' W 073°49'1918.8
2014-Jul-26 08:33N 40°08' W 073°44'2120.8
2014-Jul-26 07:33N 39°48' W 073°41'2120.9
2014-Jul-26 06:33N 39°27' W 073°40'2120.6
2014-Jul-26 05:33N 39°06' W 073°39'2020.2
2014-Jul-26 04:33N 38°46' W 073°36'2020.5
2014-Jul-26 03:33N 38°26' W 073°37'  

Dump ship's entire track history